createdAt,value
2024-05-09T00:00:06.418Z,13.18
2024-05-09T00:01:04.445Z,13.20
2024-05-09T00:02:04.533Z,13.20
2024-05-09T00:03:04.448Z,13.18
2024-05-09T00:04:04.555Z,13.18
2024-05-09T00:05:04.515Z,13.17
2024-05-09T00:06:04.511Z,13.18
2024-05-09T00:07:04.370Z,13.21
2024-05-09T00:08:04.583Z,13.21
2024-05-09T00:09:04.358Z,13.20
2024-05-09T00:10:05.566Z,13.17
2024-05-09T00:11:04.533Z,13.18
2024-05-09T00:12:04.417Z,13.15
2024-05-09T00:13:04.333Z,13.17
2024-05-09T00:14:04.338Z,13.15
2024-05-09T00:15:04.318Z,13.15
2024-05-09T00:16:04.296Z,13.15
2024-05-09T00:17:04.331Z,13.12
2024-05-09T00:18:05.208Z,13.07
2024-05-09T00:19:04.440Z,13.03
2024-05-09T00:20:10.921Z,13.02
2024-05-09T00:21:04.466Z,13.00
2024-05-09T00:22:04.241Z,13.02
2024-05-09T00:23:04.242Z,13.00
2024-05-09T00:24:04.212Z,12.97
2024-05-09T00:25:04.219Z,12.97
2024-05-09T00:26:04.219Z,12.99
2024-05-09T00:27:04.189Z,13.00
2024-05-09T00:28:04.178Z,13.00
2024-05-09T00:29:04.254Z,12.99
2024-05-09T00:30:04.367Z,13.00
2024-05-09T00:31:04.187Z,12.99
2024-05-09T00:32:04.270Z,12.99
2024-05-09T00:33:05.354Z,12.99
2024-05-09T00:34:04.230Z,13.00
2024-05-09T00:35:04.171Z,12.99
2024-05-09T00:36:04.096Z,12.97
2024-05-09T00:37:04.106Z,12.93
2024-05-09T00:38:04.584Z,12.95
2024-05-09T00:39:04.080Z,12.93
2024-05-09T00:40:05.779Z,12.93
2024-05-09T00:41:04.114Z,12.87
2024-05-09T00:42:04.044Z,12.87
2024-05-09T00:43:04.043Z,12.85
2024-05-09T00:44:04.030Z,12.85
2024-05-09T00:45:04.053Z,12.84
2024-05-09T00:46:04.014Z,12.84
2024-05-09T00:47:04.090Z,12.82
2024-05-09T00:48:04.231Z,12.84
2024-05-09T00:49:04.133Z,12.82
2024-05-09T00:50:05.548Z,12.82
2024-05-09T00:51:04.027Z,12.84
2024-05-09T00:52:03.950Z,12.84
2024-05-09T00:53:04.036Z,12.84
2024-05-09T00:54:03.927Z,12.82
2024-05-09T00:55:03.930Z,12.84
2024-05-09T00:56:03.947Z,12.84
2024-05-09T00:57:03.935Z,12.82
2024-05-09T00:58:03.895Z,12.85
2024-05-09T00:59:03.916Z,12.82
2024-05-09T01:00:06.090Z,12.84
2024-05-09T01:01:03.983Z,12.82
2024-05-09T01:02:03.958Z,12.82
2024-05-09T01:03:03.996Z,12.78
2024-05-09T01:04:04.123Z,12.77
2024-05-09T01:05:03.959Z,12.79
2024-05-09T01:06:03.899Z,12.74
2024-05-09T01:07:03.814Z,12.70
2024-05-09T01:08:03.820Z,12.67
2024-05-09T01:09:03.790Z,12.66
2024-05-09T01:10:05.516Z,12.64
2024-05-09T01:11:03.938Z,12.59
2024-05-09T01:12:04.087Z,12.59
2024-05-09T01:13:03.786Z,12.59
2024-05-09T01:14:03.798Z,12.60
2024-05-09T01:15:03.742Z,12.60
2024-05-09T01:16:03.728Z,12.60
2024-05-09T01:17:03.728Z,12.60
2024-05-09T01:18:04.048Z,12.60
2024-05-09T01:19:03.763Z,12.62
2024-05-09T01:20:06.254Z,12.63
2024-05-09T01:21:03.705Z,12.60
2024-05-09T01:22:03.680Z,12.59
2024-05-09T01:23:03.768Z,12.59
2024-05-09T01:24:03.672Z,12.60
2024-05-09T01:25:03.667Z,12.60
2024-05-09T01:26:03.639Z,12.60
2024-05-09T01:27:03.632Z,12.60
2024-05-09T01:28:03.635Z,12.60
2024-05-09T01:29:03.679Z,12.62
2024-05-09T01:30:08.991Z,12.60
2024-05-09T01:31:03.586Z,12.59
2024-05-09T01:32:03.647Z,12.59
2024-05-09T01:33:04.044Z,12.60
2024-05-09T01:34:03.637Z,12.59
2024-05-09T01:35:03.583Z,12.59
2024-05-09T01:36:03.540Z,12.57
2024-05-09T01:37:03.540Z,12.56
2024-05-09T01:38:03.806Z,12.52
2024-05-09T01:39:03.528Z,12.52
2024-05-09T01:40:03.701Z,12.49
2024-05-09T01:41:03.524Z,12.45
2024-05-09T01:42:03.480Z,12.46
2024-05-09T01:43:03.491Z,12.45
2024-05-09T01:44:03.515Z,12.38
2024-05-09T01:45:03.469Z,12.39
2024-05-09T01:46:03.450Z,12.38
2024-05-09T01:47:03.453Z,12.33
2024-05-09T01:48:03.901Z,12.31
2024-05-09T01:49:03.484Z,12.33
2024-05-09T01:50:03.638Z,12.31
2024-05-09T01:51:03.454Z,12.31
2024-05-09T01:52:03.390Z,12.30
2024-05-09T01:53:03.423Z,12.27
2024-05-09T01:54:03.376Z,12.24
2024-05-09T01:55:05.755Z,12.19
2024-05-09T01:56:03.434Z,12.11
2024-05-09T01:57:03.347Z,12.05
2024-05-09T01:58:03.334Z,11.97
2024-05-09T01:59:03.364Z,11.94
2024-05-09T02:00:03.854Z,11.94
2024-05-09T02:01:03.350Z,11.87
2024-05-09T02:02:03.517Z,11.87
2024-05-09T02:03:03.480Z,11.80
2024-05-09T02:04:03.483Z,11.78
2024-05-09T02:05:03.483Z,11.78
2024-05-09T02:06:03.402Z,11.77
2024-05-09T02:07:03.280Z,11.77
2024-05-09T02:08:03.413Z,11.78
2024-05-09T02:09:03.228Z,11.78
2024-05-09T02:10:06.580Z,11.80
2024-05-09T02:11:03.430Z,11.77
2024-05-09T02:12:03.295Z,11.75
2024-05-09T02:13:03.199Z,11.74
2024-05-09T02:14:03.196Z,11.71
2024-05-09T02:15:03.174Z,11.68
2024-05-09T02:16:03.164Z,11.68
2024-05-09T02:17:03.159Z,11.67
2024-05-09T02:18:03.381Z,11.64
2024-05-09T02:19:03.228Z,11.59
2024-05-09T02:20:03.688Z,11.53
2024-05-09T02:21:03.342Z,11.49
2024-05-09T02:22:03.098Z,11.46
2024-05-09T02:23:03.282Z,11.44
2024-05-09T02:24:03.082Z,11.43
2024-05-09T02:25:03.078Z,11.41
2024-05-09T02:26:03.144Z,11.38
2024-05-09T02:27:03.093Z,11.38
2024-05-09T02:28:03.101Z,11.39
2024-05-09T02:29:03.073Z,11.38
2024-05-09T02:30:04.743Z,11.38
2024-05-09T02:31:03.022Z,11.36
2024-05-09T02:32:03.159Z,11.36
2024-05-09T02:33:03.176Z,11.36
2024-05-09T02:34:03.335Z,11.35
2024-05-09T02:35:03.143Z,11.36
2024-05-09T02:36:02.983Z,11.35
2024-05-09T02:37:02.985Z,11.35
2024-05-09T02:38:03.173Z,11.35
2024-05-09T02:39:02.953Z,11.34
2024-05-09T02:40:03.461Z,11.34
2024-05-09T02:41:02.964Z,11.32
2024-05-09T02:42:02.935Z,11.31
2024-05-09T02:43:02.902Z,11.28
2024-05-09T02:44:02.976Z,11.29
2024-05-09T02:45:02.889Z,11.27
2024-05-09T02:46:02.886Z,11.21
2024-05-09T02:47:02.896Z,11.21
2024-05-09T02:48:03.222Z,11.19
2024-05-09T02:49:03.051Z,11.17
2024-05-09T02:50:03.657Z,11.16
2024-05-09T02:51:03.044Z,11.13
2024-05-09T02:52:02.818Z,11.09
2024-05-09T02:53:02.828Z,11.09
2024-05-09T02:54:02.848Z,11.03
2024-05-09T02:55:02.804Z,11.03
2024-05-09T02:56:02.852Z,11.01
2024-05-09T02:57:02.772Z,10.99
2024-05-09T02:58:02.829Z,10.96
2024-05-09T02:59:02.820Z,10.98
2024-05-09T03:00:03.589Z,11.01
2024-05-09T03:01:02.787Z,10.99
2024-05-09T03:02:02.856Z,10.98
2024-05-09T03:03:02.907Z,10.99
2024-05-09T03:04:02.883Z,10.99
2024-05-09T03:05:02.746Z,10.96
2024-05-09T03:06:02.706Z,10.99
2024-05-09T03:07:02.678Z,10.96
2024-05-09T03:08:02.707Z,10.95
2024-05-09T03:09:02.657Z,10.96
2024-05-09T03:10:03.364Z,10.96
2024-05-09T03:11:02.683Z,10.94
2024-05-09T03:12:02.781Z,10.89
2024-05-09T03:13:02.623Z,10.81
2024-05-09T03:14:02.695Z,10.84
2024-05-09T03:15:02.547Z,10.86
2024-05-09T03:16:02.560Z,10.88
2024-05-09T03:17:02.600Z,10.89
2024-05-09T03:18:02.899Z,10.91
2024-05-09T03:19:02.631Z,10.92
2024-05-09T03:20:03.097Z,10.91
2024-05-09T03:21:02.623Z,10.92
2024-05-09T03:22:02.507Z,10.91
2024-05-09T03:23:02.860Z,10.89
2024-05-09T03:24:02.531Z,10.88
2024-05-09T03:25:02.483Z,10.89
2024-05-09T03:26:02.532Z,10.88
2024-05-09T03:27:02.441Z,10.86
2024-05-09T03:28:02.442Z,10.84
2024-05-09T03:29:02.457Z,10.83
2024-05-09T03:30:03.830Z,10.84
2024-05-09T03:31:02.409Z,10.78
2024-05-09T03:32:02.529Z,10.74
2024-05-09T03:33:02.540Z,10.71
2024-05-09T03:34:02.509Z,10.70
2024-05-09T03:35:02.450Z,10.70
2024-05-09T03:36:02.376Z,10.65
2024-05-09T03:37:02.357Z,10.65
2024-05-09T03:38:02.413Z,10.62
2024-05-09T03:39:02.359Z,10.62
2024-05-09T03:40:02.927Z,10.63
2024-05-09T03:41:02.346Z,10.60
2024-05-09T03:42:02.298Z,10.59
2024-05-09T03:43:02.292Z,10.59
2024-05-09T03:44:02.309Z,10.60
2024-05-09T03:45:02.345Z,10.58
2024-05-09T03:46:02.283Z,10.59
2024-05-09T03:47:02.311Z,10.58
2024-05-09T03:48:02.471Z,10.58
2024-05-09T03:49:02.346Z,10.56
2024-05-09T03:50:02.329Z,10.55
2024-05-09T03:51:02.277Z,10.55
2024-05-09T03:52:02.208Z,10.56
2024-05-09T03:53:02.357Z,10.55
2024-05-09T03:54:02.174Z,10.47
2024-05-09T03:55:02.178Z,10.47
2024-05-09T03:56:02.255Z,10.46
2024-05-09T03:57:02.156Z,10.44
2024-05-09T03:58:02.151Z,10.44
2024-05-09T03:59:02.178Z,10.44
2024-05-09T04:00:02.994Z,10.44
2024-05-09T04:01:02.142Z,10.44
2024-05-09T04:02:02.244Z,10.46
2024-05-09T04:03:02.465Z,10.46
2024-05-09T04:04:02.124Z,10.47
2024-05-09T04:05:02.145Z,10.52
2024-05-09T04:06:02.062Z,10.51
2024-05-09T04:07:02.047Z,10.52
2024-05-09T04:08:02.258Z,10.52
2024-05-09T04:09:02.057Z,10.53
2024-05-09T04:10:02.248Z,10.55
2024-05-09T04:11:02.078Z,10.47
2024-05-09T04:12:02.176Z,10.47
2024-05-09T04:13:02.508Z,10.43
2024-05-09T04:14:02.067Z,10.42
2024-05-09T04:15:01.975Z,10.40
2024-05-09T04:16:01.963Z,10.37
2024-05-09T04:17:01.971Z,10.33
2024-05-09T04:18:02.681Z,10.33
2024-05-09T04:19:01.999Z,10.34
2024-05-09T04:20:02.102Z,10.30
2024-05-09T04:21:02.042Z,10.32
2024-05-09T04:22:01.930Z,10.30
2024-05-09T04:23:02.016Z,10.30
2024-05-09T04:24:01.883Z,10.28
2024-05-09T04:25:01.877Z,10.30
2024-05-09T04:26:01.910Z,10.32
2024-05-09T04:27:01.855Z,10.32
2024-05-09T04:28:01.884Z,10.33
2024-05-09T04:29:01.878Z,10.34
2024-05-09T04:30:01.839Z,10.34
2024-05-09T04:31:01.831Z,10.34
2024-05-09T04:32:01.966Z,10.34
2024-05-09T04:33:02.018Z,10.36
2024-05-09T04:34:01.956Z,10.32
2024-05-09T04:35:01.787Z,10.32
2024-05-09T04:36:01.783Z,10.33
2024-05-09T04:37:01.767Z,10.33
2024-05-09T04:38:01.873Z,10.34
2024-05-09T04:39:01.737Z,10.33
2024-05-09T04:40:01.768Z,10.34
2024-05-09T04:41:01.879Z,10.39
2024-05-09T04:42:01.731Z,10.39
2024-05-09T04:43:01.694Z,10.37
2024-05-09T04:44:01.774Z,10.34
2024-05-09T04:45:01.703Z,10.39
2024-05-09T04:46:01.716Z,10.40
2024-05-09T04:47:01.709Z,10.40
2024-05-09T04:48:02.422Z,10.40
2024-05-09T04:49:01.735Z,10.43
2024-05-09T04:50:01.792Z,10.46
2024-05-09T04:51:01.700Z,10.46
2024-05-09T04:52:01.616Z,10.46
2024-05-09T04:53:01.657Z,10.43
2024-05-09T04:54:01.631Z,10.40
2024-05-09T04:55:01.591Z,10.36
2024-05-09T04:56:01.668Z,10.39
2024-05-09T04:57:01.572Z,10.40
2024-05-09T04:58:01.595Z,10.43
2024-05-09T04:59:01.584Z,10.44
2024-05-09T05:00:01.562Z,10.52
2024-05-09T05:01:01.584Z,10.56
2024-05-09T05:02:01.599Z,10.59
2024-05-09T05:03:01.746Z,10.63
2024-05-09T05:04:01.696Z,10.66
2024-05-09T05:05:01.603Z,10.73
2024-05-09T05:06:01.678Z,10.74
2024-05-09T05:07:02.813Z,10.78
2024-05-09T05:08:01.675Z,10.78
2024-05-09T05:09:01.475Z,10.80
2024-05-09T05:10:01.453Z,10.81
2024-05-09T05:11:01.540Z,10.81
2024-05-09T05:12:01.546Z,10.86
2024-05-09T05:13:01.423Z,10.88
2024-05-09T05:14:01.467Z,10.91
2024-05-09T05:15:01.413Z,10.89
2024-05-09T05:16:01.396Z,10.88
2024-05-09T05:17:01.455Z,10.83
2024-05-09T05:18:01.494Z,10.84
2024-05-09T05:19:01.497Z,10.86
2024-05-09T05:20:01.578Z,10.89
2024-05-09T05:21:01.391Z,10.91
2024-05-09T05:22:01.338Z,10.95
2024-05-09T05:23:01.503Z,10.96
2024-05-09T05:24:01.311Z,10.98
2024-05-09T05:25:01.349Z,11.02
2024-05-09T05:26:01.314Z,11.09
2024-05-09T05:27:01.298Z,11.13
2024-05-09T05:28:01.321Z,11.13
2024-05-09T05:29:01.363Z,11.14
2024-05-09T05:30:01.269Z,11.19
2024-05-09T05:31:01.266Z,11.24
2024-05-09T05:32:01.370Z,11.25
2024-05-09T05:33:01.490Z,11.29
2024-05-09T05:34:01.335Z,11.35
2024-05-09T05:35:01.343Z,11.35
2024-05-09T05:36:01.201Z,11.41
2024-05-09T05:37:01.247Z,11.47
2024-05-09T05:38:01.317Z,11.50
2024-05-09T05:39:01.206Z,11.56
2024-05-09T05:40:01.164Z,11.59
2024-05-09T05:41:01.282Z,11.62
2024-05-09T05:42:01.153Z,11.65
2024-05-09T05:43:01.142Z,11.67
2024-05-09T05:44:01.171Z,11.71
2024-05-09T05:45:01.120Z,11.71
2024-05-09T05:46:01.136Z,11.72
2024-05-09T05:47:01.143Z,11.74
2024-05-09T05:48:01.393Z,11.75
2024-05-09T05:49:01.154Z,11.78
2024-05-09T05:50:01.320Z,11.80
2024-05-09T05:51:04.259Z,11.82
2024-05-09T05:52:01.083Z,11.80
2024-05-09T05:53:01.111Z,11.83
2024-05-09T05:54:01.031Z,11.85
2024-05-09T05:55:01.061Z,11.86
2024-05-09T05:56:01.122Z,11.86
2024-05-09T05:57:01.010Z,11.89
2024-05-09T05:58:00.996Z,11.94
2024-05-09T05:59:01.015Z,11.96
2024-05-09T06:00:00.976Z,11.99
2024-05-09T06:01:01.031Z,12.02
2024-05-09T06:02:01.164Z,12.06
2024-05-09T06:03:00.991Z,12.09
2024-05-09T06:04:01.007Z,12.15
2024-05-09T06:05:01.090Z,12.19
2024-05-09T06:06:01.081Z,12.24
2024-05-09T06:07:00.922Z,12.29
2024-05-09T06:08:01.115Z,12.31
2024-05-09T06:09:00.892Z,12.37
2024-05-09T06:10:00.888Z,12.42
2024-05-09T06:11:01.013Z,12.44
2024-05-09T06:12:01.064Z,12.45
2024-05-09T06:13:00.879Z,12.51
2024-05-09T06:14:00.872Z,12.54
2024-05-09T06:15:00.845Z,12.57
2024-05-09T06:16:00.879Z,12.62
2024-05-09T06:17:00.844Z,12.66
2024-05-09T06:18:01.208Z,12.71
2024-05-09T06:19:00.923Z,12.75
2024-05-09T06:20:00.831Z,12.79
2024-05-09T06:21:00.820Z,12.85
2024-05-09T06:22:00.777Z,12.92
2024-05-09T06:23:00.830Z,12.97
2024-05-09T06:24:02.612Z,12.97
2024-05-09T06:25:00.730Z,12.96
2024-05-09T06:26:00.843Z,12.97
2024-05-09T06:27:00.741Z,13.09
2024-05-09T06:28:00.777Z,13.14
2024-05-09T06:29:00.747Z,13.18
2024-05-09T06:30:00.691Z,13.24
2024-05-09T06:31:00.679Z,13.29
2024-05-09T06:32:00.932Z,13.33
2024-05-09T06:33:00.842Z,13.38
2024-05-09T06:34:00.766Z,13.43
2024-05-09T06:35:00.708Z,13.43
2024-05-09T06:36:00.687Z,13.44
2024-05-09T06:37:00.638Z,13.44
2024-05-09T06:38:00.753Z,13.47
2024-05-09T06:39:00.599Z,13.54
2024-05-09T06:40:00.616Z,13.61
2024-05-09T06:41:00.645Z,13.63
2024-05-09T06:42:00.634Z,13.65
2024-05-09T06:43:00.609Z,13.62
2024-05-09T06:44:00.604Z,13.58
2024-05-09T06:45:00.621Z,13.62
2024-05-09T06:46:00.570Z,13.61
2024-05-09T06:47:00.670Z,13.65
2024-05-09T06:48:00.840Z,13.69
2024-05-09T06:49:00.612Z,13.70
2024-05-09T06:50:00.617Z,13.74
2024-05-09T06:51:00.582Z,13.81
2024-05-09T06:52:00.497Z,13.87
2024-05-09T06:53:00.616Z,13.89
2024-05-09T06:54:00.488Z,13.91
2024-05-09T06:55:00.463Z,13.94
2024-05-09T06:56:00.513Z,13.98
2024-05-09T06:57:00.463Z,14.06
2024-05-09T06:58:00.450Z,14.09
2024-05-09T06:59:00.624Z,14.12
2024-05-09T07:00:00.438Z,14.16
2024-05-09T07:01:00.443Z,14.21
2024-05-09T07:02:00.445Z,14.27
2024-05-09T07:03:03.508Z,14.27
2024-05-09T07:04:00.453Z,14.31
2024-05-09T07:05:00.529Z,14.37
2024-05-09T07:06:00.430Z,14.56
2024-05-09T07:07:00.351Z,14.81
2024-05-09T07:08:00.409Z,15.09
2024-05-09T07:09:00.347Z,15.35
2024-05-09T07:10:00.361Z,15.85
2024-05-09T07:11:00.354Z,16.62
2024-05-09T07:12:00.400Z,17.26
2024-05-09T07:13:00.306Z,17.88
2024-05-09T07:14:00.357Z,18.39
2024-05-09T07:15:00.274Z,18.74
2024-05-09T07:16:00.262Z,19.15
2024-05-09T07:17:00.329Z,19.57
2024-05-09T07:18:00.361Z,20.08
2024-05-09T07:19:00.398Z,20.46
2024-05-09T07:20:00.446Z,20.80
2024-05-09T07:21:00.243Z,21.14
2024-05-09T07:22:00.236Z,21.44
2024-05-09T07:23:00.265Z,21.48
2024-05-09T07:24:00.209Z,21.64
2024-05-09T07:25:00.211Z,21.82
2024-05-09T07:26:00.224Z,22.06
2024-05-09T07:27:00.178Z,22.29
2024-05-09T07:28:00.164Z,22.60
2024-05-09T07:29:00.224Z,22.71
2024-05-09T07:30:00.159Z,22.77
2024-05-09T07:31:00.154Z,22.29
2024-05-09T07:32:00.172Z,22.43
2024-05-09T07:33:00.610Z,22.56
2024-05-09T07:34:00.275Z,22.86
2024-05-09T07:35:00.163Z,23.17
2024-05-09T07:36:00.082Z,23.39
2024-05-09T07:37:00.088Z,23.61
2024-05-09T07:38:00.148Z,23.65
2024-05-09T07:39:00.058Z,23.90
2024-05-09T07:40:00.069Z,24.22
2024-05-09T07:41:00.135Z,24.37
2024-05-09T07:42:00.055Z,24.56
2024-05-09T07:43:00.043Z,24.80
2024-05-09T07:44:00.085Z,24.91
2024-05-09T07:45:14.908Z,25.10
2024-05-09T07:46:37.785Z,25.39
2024-05-09T07:49:12.081Z,25.50
2024-05-09T07:53:20.370Z,26.55
2024-05-09T07:53:46.195Z,26.72
2024-05-09T07:53:57.246Z,26.80
2024-05-09T07:54:53.469Z,26.86
2024-05-09T07:55:53.444Z,27.02
2024-05-09T07:56:53.457Z,27.14
2024-05-09T07:57:53.263Z,26.91
2024-05-09T07:58:53.305Z,26.80
2024-05-09T07:59:53.207Z,26.92
2024-05-09T08:00:53.331Z,27.05
2024-05-09T08:01:53.296Z,27.17
2024-05-09T08:02:53.230Z,27.42
2024-05-09T08:03:53.526Z,27.51
2024-05-09T08:04:53.289Z,27.66
2024-05-09T08:05:53.289Z,27.94
2024-05-09T08:06:53.160Z,28.21
2024-05-09T08:07:53.126Z,28.32
2024-05-09T08:08:53.143Z,28.48
2024-05-09T08:09:53.132Z,28.33
2024-05-09T08:10:53.265Z,28.29
2024-05-09T08:11:53.154Z,28.46
2024-05-09T08:12:53.164Z,28.62
2024-05-09T08:13:53.105Z,28.70
2024-05-09T08:14:53.109Z,28.87
2024-05-09T08:15:53.186Z,29.03
2024-05-09T08:16:53.158Z,29.19
2024-05-09T08:17:53.098Z,29.19
2024-05-09T08:18:53.146Z,29.35
2024-05-09T08:19:53.092Z,29.49
2024-05-09T08:20:53.108Z,29.57
2024-05-09T08:21:53.017Z,29.65
2024-05-09T08:22:53.035Z,29.43
2024-05-09T08:23:53.003Z,29.35
2024-05-09T08:24:53.162Z,29.26
2024-05-09T08:25:53.048Z,29.29
2024-05-09T08:26:52.960Z,29.52
2024-05-09T08:27:53.093Z,29.77
2024-05-09T08:28:52.963Z,30.07
2024-05-09T08:29:53.491Z,30.21
2024-05-09T08:30:53.087Z,30.27
2024-05-09T08:31:52.967Z,30.47
2024-05-09T08:32:53.001Z,30.54
2024-05-09T08:33:53.180Z,30.61
2024-05-09T08:34:52.941Z,30.59
2024-05-09T08:35:52.889Z,30.11
2024-05-09T08:36:52.950Z,29.90
2024-05-09T08:37:52.890Z,29.99
2024-05-09T08:38:52.870Z,29.82
2024-05-09T08:39:52.902Z,29.89
2024-05-09T08:40:52.911Z,30.08
2024-05-09T08:41:52.836Z,29.99
2024-05-09T08:42:53.003Z,29.38
2024-05-09T08:43:52.828Z,29.53
2024-05-09T08:44:52.832Z,29.50
2024-05-09T08:45:52.840Z,29.70
2024-05-09T08:46:52.808Z,30.03
2024-05-09T08:47:52.965Z,30.40
2024-05-09T08:48:53.060Z,30.67
2024-05-09T08:49:52.886Z,30.81
2024-05-09T08:50:52.973Z,30.68
2024-05-09T08:51:52.792Z,30.61
2024-05-09T08:52:52.767Z,30.96
2024-05-09T08:53:52.788Z,31.21
2024-05-09T08:54:52.816Z,31.49
2024-05-09T08:55:52.750Z,30.96
2024-05-09T08:56:52.801Z,30.98
2024-05-09T08:57:52.836Z,31.35
2024-05-09T08:58:52.785Z,31.17
2024-05-09T08:59:52.715Z,31.18
2024-05-09T09:00:52.884Z,31.54
2024-05-09T09:01:52.765Z,30.94
2024-05-09T09:02:52.774Z,30.94
2024-05-09T09:03:52.925Z,31.20
2024-05-09T09:04:52.846Z,31.18
2024-05-09T09:05:52.850Z,29.81
2024-05-09T09:06:54.751Z,29.78
2024-05-09T09:07:52.646Z,29.84
2024-05-09T09:08:52.723Z,29.34
2024-05-09T09:09:52.728Z,29.22
2024-05-09T09:10:52.706Z,29.65
2024-05-09T09:11:52.729Z,28.66
2024-05-09T09:12:52.755Z,27.29
2024-05-09T09:13:52.599Z,27.05
2024-05-09T09:14:52.598Z,27.33
2024-05-09T09:15:52.642Z,27.77
2024-05-09T09:16:52.594Z,28.31
2024-05-09T09:17:52.795Z,28.96
2024-05-09T09:18:52.805Z,29.62
2024-05-09T09:19:52.672Z,29.44
2024-05-09T09:20:52.582Z,28.82
2024-05-09T09:21:52.621Z,28.11
2024-05-09T09:22:52.547Z,27.80
2024-05-09T09:23:52.526Z,26.73
2024-05-09T09:24:52.545Z,26.89
2024-05-09T09:25:52.532Z,26.99
2024-05-09T09:26:52.511Z,27.23
2024-05-09T09:27:52.541Z,27.57
2024-05-09T09:28:52.500Z,27.88
2024-05-09T09:29:52.487Z,27.59
2024-05-09T09:30:52.516Z,27.66
2024-05-09T09:31:52.499Z,27.70
2024-05-09T09:32:52.610Z,27.77
2024-05-09T09:33:52.717Z,27.85
2024-05-09T09:34:52.538Z,26.99
2024-05-09T09:35:52.455Z,26.52
2024-05-09T09:36:52.539Z,26.09
2024-05-09T09:37:52.430Z,25.86
2024-05-09T09:38:52.423Z,25.77
2024-05-09T09:39:52.475Z,25.52
2024-05-09T09:40:52.433Z,25.27
2024-05-09T09:41:52.397Z,25.13
2024-05-09T09:42:52.442Z,24.97
2024-05-09T09:43:52.384Z,24.98
2024-05-09T09:45:01.923Z,24.87
2024-05-09T09:45:53.349Z,24.57
2024-05-09T09:46:52.373Z,24.75
2024-05-09T09:47:52.508Z,24.79
2024-05-09T09:48:52.502Z,24.90
2024-05-09T09:49:52.407Z,25.15
2024-05-09T09:50:52.487Z,25.16
2024-05-09T09:51:52.371Z,25.22
2024-05-09T09:52:52.319Z,25.20
2024-05-09T09:53:52.322Z,25.28
2024-05-09T09:54:52.363Z,25.19
2024-05-09T09:55:52.323Z,24.64
2024-05-09T09:56:52.293Z,24.08
2024-05-09T09:57:52.327Z,24.00
2024-05-09T09:58:52.284Z,24.08
2024-05-09T09:59:52.291Z,24.12
2024-05-09T10:00:52.350Z,24.19
2024-05-09T10:01:52.303Z,24.17
2024-05-09T10:02:52.269Z,24.08
2024-05-09T10:03:52.425Z,23.80
2024-05-09T10:04:52.292Z,23.67
2024-05-09T10:05:52.233Z,23.53
2024-05-09T10:06:52.264Z,23.50
2024-05-09T10:07:52.198Z,23.49
2024-05-09T10:08:52.196Z,23.49
2024-05-09T10:09:52.233Z,23.49
2024-05-09T10:10:52.479Z,23.45
2024-05-09T10:11:54.523Z,23.39
2024-05-09T10:12:52.258Z,23.11
2024-05-09T10:13:52.145Z,22.71
2024-05-09T10:14:52.132Z,22.28
2024-05-09T10:15:52.532Z,21.92
2024-05-09T10:16:52.121Z,21.83
2024-05-09T10:17:52.204Z,21.51
2024-05-09T10:18:52.344Z,21.34
2024-05-09T10:19:52.194Z,21.42
2024-05-09T10:20:52.084Z,21.59
2024-05-09T10:21:52.140Z,21.72
2024-05-09T10:22:52.069Z,21.85
2024-05-09T10:23:52.092Z,22.01
2024-05-09T10:24:52.088Z,21.92
2024-05-09T10:25:52.035Z,21.83
2024-05-09T10:26:52.050Z,21.78
2024-05-09T10:27:52.072Z,21.75
2024-05-09T10:28:52.016Z,21.72
2024-05-09T10:29:52.002Z,21.92
2024-05-09T10:30:52.028Z,22.12
2024-05-09T10:31:52.024Z,22.20
2024-05-09T10:32:52.047Z,21.78
2024-05-09T10:33:52.904Z,21.79
2024-05-09T10:34:51.976Z,21.75
2024-05-09T10:35:51.953Z,21.74
2024-05-09T10:36:52.041Z,21.53
2024-05-09T10:37:51.930Z,21.17
2024-05-09T10:38:52.501Z,21.01
2024-05-09T10:39:51.931Z,21.05
2024-05-09T10:40:51.944Z,21.01
2024-05-09T10:41:51.889Z,21.04
2024-05-09T10:42:51.913Z,21.17
2024-05-09T10:43:52.074Z,21.06
2024-05-09T10:44:51.882Z,21.01
2024-05-09T10:45:51.908Z,21.04
2024-05-09T10:46:51.852Z,21.06
2024-05-09T10:47:52.087Z,21.04
2024-05-09T10:48:51.932Z,21.02
2024-05-09T10:49:51.873Z,21.05
2024-05-09T10:50:51.815Z,21.21
2024-05-09T10:51:51.874Z,21.36
2024-05-09T10:52:51.803Z,21.46
2024-05-09T10:53:51.815Z,21.63
2024-05-09T10:54:51.874Z,21.78
2024-05-09T10:55:51.765Z,21.76
2024-05-09T10:56:51.779Z,21.92
2024-05-09T10:57:51.802Z,22.06
2024-05-09T10:58:51.741Z,22.10
2024-05-09T10:59:51.734Z,22.22
2024-05-09T11:00:51.874Z,22.35
2024-05-09T11:01:51.809Z,22.43
2024-05-09T11:02:51.767Z,22.31
2024-05-09T11:03:51.822Z,22.20
2024-05-09T11:04:51.862Z,21.88
2024-05-09T11:05:51.742Z,21.71
2024-05-09T11:06:51.711Z,21.61
2024-05-09T11:07:51.669Z,21.63
2024-05-09T11:08:51.670Z,21.66
2024-05-09T11:09:51.661Z,21.71
2024-05-09T11:10:51.652Z,21.78
2024-05-09T11:11:51.724Z,21.75
2024-05-09T11:12:51.711Z,21.74
2024-05-09T11:13:51.604Z,21.66
2024-05-09T11:14:51.607Z,21.48
2024-05-09T11:15:51.745Z,21.39
2024-05-09T11:16:51.585Z,21.46
2024-05-09T11:17:51.679Z,21.59
2024-05-09T11:18:51.804Z,21.56
2024-05-09T11:19:51.590Z,21.57
2024-05-09T11:20:51.667Z,21.54
2024-05-09T11:21:51.647Z,21.59
2024-05-09T11:22:51.541Z,21.50
2024-05-09T11:23:51.521Z,21.56
2024-05-09T11:24:51.514Z,21.41
2024-05-09T11:25:51.515Z,21.34
2024-05-09T11:26:51.517Z,21.35
2024-05-09T11:27:51.548Z,21.29
2024-05-09T11:28:51.490Z,21.29
2024-05-09T11:29:51.461Z,21.35
2024-05-09T11:30:51.553Z,21.36
2024-05-09T11:31:51.505Z,21.41
2024-05-09T11:32:51.504Z,21.44
2024-05-09T11:33:51.557Z,21.45
2024-05-09T11:34:51.413Z,21.53
2024-05-09T11:35:51.409Z,21.57
2024-05-09T11:36:51.439Z,21.72
2024-05-09T11:37:51.389Z,21.61
2024-05-09T11:38:51.414Z,21.63
2024-05-09T11:39:51.389Z,21.67
2024-05-09T11:40:51.434Z,21.76
2024-05-09T11:41:51.371Z,21.76
2024-05-09T11:42:53.134Z,21.67
2024-05-09T11:43:51.333Z,21.53
2024-05-09T11:44:51.331Z,21.53
2024-05-09T11:45:51.374Z,21.61
2024-05-09T11:46:51.311Z,21.63
2024-05-09T11:47:51.414Z,21.72
2024-05-09T11:48:51.459Z,21.76
2024-05-09T11:49:51.322Z,21.79
2024-05-09T11:50:51.277Z,21.92
2024-05-09T11:51:51.267Z,22.04
2024-05-09T11:52:51.264Z,22.07
2024-05-09T11:53:51.243Z,22.10
2024-05-09T11:54:51.286Z,22.10
2024-05-09T11:55:51.262Z,22.07
2024-05-09T11:56:51.216Z,22.01
2024-05-09T11:57:51.233Z,21.90
2024-05-09T11:58:51.205Z,21.79
2024-05-09T11:59:51.190Z,21.78
2024-05-09T12:00:51.298Z,21.61
2024-05-09T12:01:51.285Z,21.54
2024-05-09T12:02:51.197Z,21.48
2024-05-09T12:03:51.266Z,21.41
2024-05-09T12:04:51.282Z,21.39
2024-05-09T12:05:51.367Z,21.41
2024-05-09T12:06:51.147Z,21.42
2024-05-09T12:07:51.117Z,21.42
2024-05-09T12:08:51.129Z,21.42
2024-05-09T12:09:51.190Z,21.41
2024-05-09T12:10:51.307Z,21.45
2024-05-09T12:11:51.169Z,21.44
2024-05-09T12:12:51.165Z,21.41
2024-05-09T12:13:51.086Z,21.41
2024-05-09T12:14:51.047Z,21.42
2024-05-09T12:15:51.081Z,21.39
2024-05-09T12:16:51.107Z,21.29
2024-05-09T12:17:51.335Z,21.26
2024-05-09T12:18:51.115Z,21.05
2024-05-09T12:19:51.012Z,20.98
2024-05-09T12:20:51.000Z,20.91
2024-05-09T12:21:51.057Z,20.87
2024-05-09T12:22:50.994Z,20.86
2024-05-09T12:23:50.974Z,20.91
2024-05-09T12:24:50.965Z,20.95
2024-05-09T12:25:50.964Z,20.95
2024-05-09T12:26:50.939Z,20.98
2024-05-09T12:27:51.052Z,20.95
2024-05-09T12:28:50.926Z,20.93
2024-05-09T12:29:50.917Z,20.95
2024-05-09T12:30:50.962Z,20.95
2024-05-09T12:31:50.971Z,21.05
2024-05-09T12:32:51.042Z,21.16
2024-05-09T12:33:50.986Z,21.23
2024-05-09T12:34:50.861Z,21.29
2024-05-09T12:35:51.311Z,21.35
2024-05-09T12:36:50.901Z,21.39
2024-05-09T12:37:50.876Z,21.44
2024-05-09T12:38:50.840Z,21.51
2024-05-09T12:39:50.859Z,21.54
2024-05-09T12:40:50.982Z,21.56
2024-05-09T12:41:50.842Z,21.59
2024-05-09T12:42:50.847Z,21.63
2024-05-09T12:43:50.783Z,21.60
2024-05-09T12:44:50.784Z,21.44
2024-05-09T12:45:50.821Z,21.38
2024-05-09T12:46:50.786Z,21.38
2024-05-09T12:47:50.865Z,21.41
2024-05-09T12:48:50.878Z,21.45
2024-05-09T12:49:50.779Z,21.48
2024-05-09T12:50:50.912Z,21.48
2024-05-09T12:51:50.783Z,21.50
2024-05-09T12:52:50.701Z,21.50
2024-05-09T12:53:50.743Z,21.57
2024-05-09T12:54:50.700Z,21.57
2024-05-09T12:55:56.840Z,21.59